sensor_id;sensor_type;location;lat;lon;timestamp;P1;durP1;ratioP1;P2;durP2;ratioP2
4202;SDS011;2115;51.038;7.006;2023-03-01T00:01:02;7.47;;;4.60;;
4202;SDS011;2115;51.038;7.006;2023-03-01T00:03:33;10.70;;;5.20;;
4202;SDS011;2115;51.038;7.006;2023-03-01T00:05:58;18.17;;;5.80;;
4202;SDS011;2115;51.038;7.006;2023-03-01T00:08:25;12.23;;;4.90;;
4202;SDS011;2115;51.038;7.006;2023-03-01T00:10:59;14.33;;;4.60;;
4202;SDS011;2115;51.038;7.006;2023-03-01T00:13:38;7.70;;;4.60;;
4202;SDS011;2115;51.038;7.006;2023-03-01T00:16:04;7.60;;;4.40;;
4202;SDS011;2115;51.038;7.006;2023-03-01T00:18:31;13.70;;;5.50;;
4202;SDS011;2115;51.038;7.006;2023-03-01T00:20:57;11.40;;;5.63;;
4202;SDS011;2115;51.038;7.006;2023-03-01T00:23:23;8.97;;;5.03;;
4202;SDS011;2115;51.038;7.006;2023-03-01T00:25:49;8.03;;;5.27;;
4202;SDS011;2115;51.038;7.006;2023-03-01T00:28:15;5.73;;;4.03;;
4202;SDS011;2115;51.038;7.006;2023-03-01T00:30:40;10.90;;;5.23;;
4202;SDS011;2115;51.038;7.006;2023-03-01T00:33:06;10.90;;;5.20;;
4202;SDS011;2115;51.038;7.006;2023-03-01T00:35:32;9.70;;;5.30;;
4202;SDS011;2115;51.038;7.006;2023-03-01T00:37:57;12.67;;;5.97;;
4202;SDS011;2115;51.038;7.006;2023-03-01T00:40:23;9.70;;;5.43;;
4202;SDS011;2115;51.038;7.006;2023-03-01T00:42:49;7.50;;;4.80;;
4202;SDS011;2115;51.038;7.006;2023-03-01T00:45:15;8.13;;;5.23;;
4202;SDS011;2115;51.038;7.006;2023-03-01T00:47:40;9.57;;;4.40;;
4202;SDS011;2115;51.038;7.006;2023-03-01T00:50:07;9.80;;;4.57;;
4202;SDS011;2115;51.038;7.006;2023-03-01T00:52:33;9.67;;;4.53;;
4202;SDS011;2115;51.038;7.006;2023-03-01T00:54:59;9.23;;;4.47;;
4202;SDS011;2115;51.038;7.006;2023-03-01T00:57:24;11.00;;;5.00;;
4202;SDS011;2115;51.038;7.006;2023-03-01T00:59:50;6.27;;;4.13;;
4202;SDS011;2115;51.038;7.006;2023-03-01T01:02:17;9.80;;;4.47;;
4202;SDS011;2115;51.038;7.006;2023-03-01T01:04:43;11.17;;;5.30;;
4202;SDS011;2115;51.038;7.006;2023-03-01T01:07:08;8.87;;;4.37;;
4202;SDS011;2115;51.038;7.006;2023-03-01T01:09:33;7.80;;;4.50;;
4202;SDS011;2115;51.038;7.006;2023-03-01T01:11:59;10.27;;;4.80;;
4202;SDS011;2115;51.038;7.006;2023-03-01T01:14:24;8.63;;;4.83;;
4202;SDS011;2115;51.038;7.006;2023-03-01T01:16:50;6.90;;;4.47;;
4202;SDS011;2115;51.038;7.006;2023-03-01T01:19:16;7.90;;;4.40;;
4202;SDS011;2115;51.038;7.006;2023-03-01T01:21:41;9.10;;;4.87;;
4202;SDS011;2115;51.038;7.006;2023-03-01T01:24:08;7.70;;;4.93;;
4202;SDS011;2115;51.038;7.006;2023-03-01T01:26:34;7.20;;;4.60;;
4202;SDS011;2115;51.038;7.006;2023-03-01T01:29:00;10.90;;;5.30;;
4202;SDS011;2115;51.038;7.006;2023-03-01T01:31:27;7.23;;;4.93;;
4202;SDS011;2115;51.038;7.006;2023-03-01T01:33:53;8.33;;;4.70;;
4202;SDS011;2115;51.038;7.006;2023-03-01T01:36:19;10.50;;;4.80;;
4202;SDS011;2115;51.038;7.006;2023-03-01T01:38:45;8.00;;;4.57;;
4202;SDS011;2115;51.038;7.006;2023-03-01T01:41:11;6.97;;;4.27;;
4202;SDS011;2115;51.038;7.006;2023-03-01T01:43:38;6.90;;;4.30;;
4202;SDS011;2115;51.038;7.006;2023-03-01T01:48:57;9.40;;;4.63;;
4202;SDS011;2115;51.038;7.006;2023-03-01T01:51:27;9.30;;;4.40;;
4202;SDS011;2115;51.038;7.006;2023-03-01T01:54:03;9.40;;;4.83;;
4202;SDS011;2115;51.038;7.006;2023-03-01T01:56:31;9.70;;;4.60;;
4202;SDS011;2115;51.038;7.006;2023-03-01T01:58:57;6.87;;;4.30;;
4202;SDS011;2115;51.038;7.006;2023-03-01T02:01:22;11.90;;;4.93;;
4202;SDS011;2115;51.038;7.006;2023-03-01T02:03:48;12.97;;;4.40;;
4202;SDS011;2115;51.038;7.006;2023-03-01T02:08:44;11.50;;;4.10;;
4202;SDS011;2115;51.038;7.006;2023-03-01T02:11:11;16.70;;;4.77;;
4202;SDS011;2115;51.038;7.006;2023-03-01T02:13:39;7.73;;;4.77;;
4202;SDS011;2115;51.038;7.006;2023-03-01T02:16:07;10.23;;;4.93;;
4202;SDS011;2115;51.038;7.006;2023-03-01T02:18:34;7.70;;;4.53;;
4202;SDS011;2115;51.038;7.006;2023-03-01T02:23:36;7.70;;;4.57;;
4202;SDS011;2115;51.038;7.006;2023-03-01T02:26:06;9.37;;;4.40;;
4202;SDS011;2115;51.038;7.006;2023-03-01T02:28:38;10.13;;;4.90;;
4202;SDS011;2115;51.038;7.006;2023-03-01T02:31:07;6.03;;;4.00;;
4202;SDS011;2115;51.038;7.006;2023-03-01T02:33:53;7.50;;;5.10;;
4202;SDS011;2115;51.038;7.006;2023-03-01T02:36:20;6.57;;;4.17;;
4202;SDS011;2115;51.038;7.006;2023-03-01T02:38:47;8.60;;;4.70;;
4202;SDS011;2115;51.038;7.006;2023-03-01T02:41:14;12.77;;;5.00;;
4202;SDS011;2115;51.038;7.006;2023-03-01T02:43:41;10.23;;;5.03;;
4202;SDS011;2115;51.038;7.006;2023-03-01T02:46:08;11.90;;;4.40;;
4202;SDS011;2115;51.038;7.006;2023-03-01T02:48:48;8.13;;;5.27;;
4202;SDS011;2115;51.038;7.006;2023-03-01T02:53:55;7.40;;;4.80;;
4202;SDS011;2115;51.038;7.006;2023-03-01T02:56:23;8.80;;;4.90;;
4202;SDS011;2115;51.038;7.006;2023-03-01T02:58:48;9.03;;;4.80;;
4202;SDS011;2115;51.038;7.006;2023-03-01T03:01:17;9.87;;;4.50;;
4202;SDS011;2115;51.038;7.006;2023-03-01T03:03:43;8.23;;;4.73;;
4202;SDS011;2115;51.038;7.006;2023-03-01T03:06:08;11.20;;;4.97;;
4202;SDS011;2115;51.038;7.006;2023-03-01T03:08:34;10.63;;;4.47;;
4202;SDS011;2115;51.038;7.006;2023-03-01T03:10:59;7.77;;;4.63;;
4202;SDS011;2115;51.038;7.006;2023-03-01T03:13:25;8.23;;;4.77;;
4202;SDS011;2115;51.038;7.006;2023-03-01T03:15:53;8.77;;;4.70;;
4202;SDS011;2115;51.038;7.006;2023-03-01T03:18:20;7.80;;;4.47;;
4202;SDS011;2115;51.038;7.006;2023-03-01T03:20:46;8.00;;;4.47;;
4202;SDS011;2115;51.038;7.006;2023-03-01T03:23:12;7.83;;;4.73;;
4202;SDS011;2115;51.038;7.006;2023-03-01T03:25:37;15.20;;;5.17;;
4202;SDS011;2115;51.038;7.006;2023-03-01T03:28:03;8.43;;;5.23;;
4202;SDS011;2115;51.038;7.006;2023-03-01T03:30:34;8.87;;;4.80;;
4202;SDS011;2115;51.038;7.006;2023-03-01T03:33:03;11.63;;;4.60;;
4202;SDS011;2115;51.038;7.006;2023-03-01T03:35:33;8.50;;;5.03;;
4202;SDS011;2115;51.038;7.006;2023-03-01T03:38:04;9.87;;;4.80;;
4202;SDS011;2115;51.038;7.006;2023-03-01T03:40:40;9.80;;;5.80;;
4202;SDS011;2115;51.038;7.006;2023-03-01T03:43:11;7.97;;;4.63;;
4202;SDS011;2115;51.038;7.006;2023-03-01T03:45:45;13.30;;;4.60;;
4202;SDS011;2115;51.038;7.006;2023-03-01T03:48:11;12.80;;;5.70;;
4202;SDS011;2115;51.038;7.006;2023-03-01T03:50:37;10.00;;;5.30;;
4202;SDS011;2115;51.038;7.006;2023-03-01T03:53:04;11.07;;;6.53;;
4202;SDS011;2115;51.038;7.006;2023-03-01T03:55:31;11.13;;;5.10;;
4202;SDS011;2115;51.038;7.006;2023-03-01T03:57:59;9.07;;;4.90;;
4202;SDS011;2115;51.038;7.006;2023-03-01T04:00:31;10.07;;;5.47;;
4202;SDS011;2115;51.038;7.006;2023-03-01T04:02:59;8.43;;;4.77;;
4202;SDS011;2115;51.038;7.006;2023-03-01T04:05:25;9.57;;;4.93;;
4202;SDS011;2115;51.038;7.006;2023-03-01T04:07:51;9.57;;;5.50;;
4202;SDS011;2115;51.038;7.006;2023-03-01T04:10:26;8.03;;;4.90;;
4202;SDS011;2115;51.038;7.006;2023-03-01T04:12:53;8.10;;;5.40;;
4202;SDS011;2115;51.038;7.006;2023-03-01T04:15:20;9.80;;;5.63;;
4202;SDS011;2115;51.038;7.006;2023-03-01T04:17:49;12.23;;;6.23;;
4202;SDS011;2115;51.038;7.006;2023-03-01T04:20:16;11.80;;;6.37;;
4202;SDS011;2115;51.038;7.006;2023-03-01T04:22:52;9.83;;;6.10;;
4202;SDS011;2115;51.038;7.006;2023-03-01T04:25:22;14.00;;;6.30;;
4202;SDS011;2115;51.038;7.006;2023-03-01T04:27:48;11.27;;;5.30;;
4202;SDS011;2115;51.038;7.006;2023-03-01T04:30:14;12.50;;;5.87;;
4202;SDS011;2115;51.038;7.006;2023-03-01T04:32:39;10.83;;;6.10;;
4202;SDS011;2115;51.038;7.006;2023-03-01T04:35:05;10.97;;;6.00;;
4202;SDS011;2115;51.038;7.006;2023-03-01T04:37:30;9.90;;;6.07;;
4202;SDS011;2115;51.038;7.006;2023-03-01T04:39:55;9.40;;;5.53;;
4202;SDS011;2115;51.038;7.006;2023-03-01T04:42:21;14.40;;;6.10;;
4202;SDS011;2115;51.038;7.006;2023-03-01T04:44:46;9.23;;;5.43;;
4202;SDS011;2115;51.038;7.006;2023-03-01T04:47:12;9.97;;;6.10;;
4202;SDS011;2115;51.038;7.006;2023-03-01T04:49:37;13.13;;;5.77;;
4202;SDS011;2115;51.038;7.006;2023-03-01T04:52:03;9.63;;;6.03;;
4202;SDS011;2115;51.038;7.006;2023-03-01T04:54:32;14.90;;;7.17;;
4202;SDS011;2115;51.038;7.006;2023-03-01T04:56:58;15.50;;;7.30;;
4202;SDS011;2115;51.038;7.006;2023-03-01T04:59:23;16.73;;;5.90;;
4202;SDS011;2115;51.038;7.006;2023-03-01T05:01:49;10.57;;;5.67;;
4202;SDS011;2115;51.038;7.006;2023-03-01T05:04:15;9.90;;;5.80;;
4202;SDS011;2115;51.038;7.006;2023-03-01T05:06:41;13.60;;;6.07;;
4202;SDS011;2115;51.038;7.006;2023-03-01T05:09:06;10.17;;;6.10;;
4202;SDS011;2115;51.038;7.006;2023-03-01T05:11:31;15.83;;;7.07;;
4202;SDS011;2115;51.038;7.006;2023-03-01T05:14:01;11.90;;;6.27;;
4202;SDS011;2115;51.038;7.006;2023-03-01T05:16:26;15.37;;;6.20;;
4202;SDS011;2115;51.038;7.006;2023-03-01T05:18:52;15.80;;;6.53;;
4202;SDS011;2115;51.038;7.006;2023-03-01T05:21:17;13.43;;;6.13;;
4202;SDS011;2115;51.038;7.006;2023-03-01T05:23:43;14.50;;;5.90;;
4202;SDS011;2115;51.038;7.006;2023-03-01T05:26:09;12.83;;;6.00;;
4202;SDS011;2115;51.038;7.006;2023-03-01T05:28:34;12.03;;;6.50;;
4202;SDS011;2115;51.038;7.006;2023-03-01T05:31:00;16.43;;;7.00;;
4202;SDS011;2115;51.038;7.006;2023-03-01T05:33:26;11.33;;;6.23;;
4202;SDS011;2115;51.038;7.006;2023-03-01T05:35:52;12.10;;;6.93;;
4202;SDS011;2115;51.038;7.006;2023-03-01T05:38:18;10.07;;;5.20;;
4202;SDS011;2115;51.038;7.006;2023-03-01T05:40:45;13.47;;;5.93;;
4202;SDS011;2115;51.038;7.006;2023-03-01T05:43:12;10.60;;;6.20;;
4202;SDS011;2115;51.038;7.006;2023-03-01T05:45:39;17.43;;;6.53;;
4202;SDS011;2115;51.038;7.006;2023-03-01T05:48:06;17.50;;;6.03;;
4202;SDS011;2115;51.038;7.006;2023-03-01T05:50:33;14.47;;;7.07;;
4202;SDS011;2115;51.038;7.006;2023-03-01T05:53:04;12.90;;;6.93;;
4202;SDS011;2115;51.038;7.006;2023-03-01T05:55:32;11.53;;;6.63;;
4202;SDS011;2115;51.038;7.006;2023-03-01T05:57:59;12.00;;;7.20;;
4202;SDS011;2115;51.038;7.006;2023-03-01T06:00:25;15.37;;;7.07;;
4202;SDS011;2115;51.038;7.006;2023-03-01T06:02:52;15.17;;;6.97;;
4202;SDS011;2115;51.038;7.006;2023-03-01T06:05:19;11.77;;;6.37;;
4202;SDS011;2115;51.038;7.006;2023-03-01T06:07:44;17.40;;;7.53;;
4202;SDS011;2115;51.038;7.006;2023-03-01T06:10:10;13.00;;;6.00;;
4202;SDS011;2115;51.038;7.006;2023-03-01T06:12:36;10.90;;;6.13;;
4202;SDS011;2115;51.038;7.006;2023-03-01T06:15:03;14.17;;;7.50;;
4202;SDS011;2115;51.038;7.006;2023-03-01T06:17:30;11.70;;;6.70;;
4202;SDS011;2115;51.038;7.006;2023-03-01T06:19:56;12.50;;;6.60;;
4202;SDS011;2115;51.038;7.006;2023-03-01T06:22:22;10.20;;;6.27;;
4202;SDS011;2115;51.038;7.006;2023-03-01T06:24:47;12.57;;;7.27;;
4202;SDS011;2115;51.038;7.006;2023-03-01T06:27:12;15.23;;;7.60;;
4202;SDS011;2115;51.038;7.006;2023-03-01T06:29:38;12.93;;;7.07;;
4202;SDS011;2115;51.038;7.006;2023-03-01T06:32:03;16.30;;;7.37;;
4202;SDS011;2115;51.038;7.006;2023-03-01T06:34:29;15.93;;;7.47;;
4202;SDS011;2115;51.038;7.006;2023-03-01T06:36:54;15.80;;;7.80;;
4202;SDS011;2115;51.038;7.006;2023-03-01T06:39:20;19.50;;;7.77;;
4202;SDS011;2115;51.038;7.006;2023-03-01T06:41:45;18.37;;;8.13;;
4202;SDS011;2115;51.038;7.006;2023-03-01T06:44:10;31.53;;;8.70;;
4202;SDS011;2115;51.038;7.006;2023-03-01T06:46:36;16.83;;;8.40;;
4202;SDS011;2115;51.038;7.006;2023-03-01T06:49:01;26.10;;;9.10;;
4202;SDS011;2115;51.038;7.006;2023-03-01T06:51:29;19.40;;;9.10;;
4202;SDS011;2115;51.038;7.006;2023-03-01T06:53:55;17.73;;;8.00;;
4202;SDS011;2115;51.038;7.006;2023-03-01T06:56:20;14.97;;;8.63;;
4202;SDS011;2115;51.038;7.006;2023-03-01T06:58:45;27.50;;;8.80;;
4202;SDS011;2115;51.038;7.006;2023-03-01T07:01:10;36.17;;;9.57;;
4202;SDS011;2115;51.038;7.006;2023-03-01T07:03:36;17.20;;;8.07;;
4202;SDS011;2115;51.038;7.006;2023-03-01T07:06:01;21.90;;;8.80;;
4202;SDS011;2115;51.038;7.006;2023-03-01T07:08:26;18.97;;;7.90;;
4202;SDS011;2115;51.038;7.006;2023-03-01T07:10:58;16.13;;;8.53;;
4202;SDS011;2115;51.038;7.006;2023-03-01T07:13:24;18.20;;;8.87;;
4202;SDS011;2115;51.038;7.006;2023-03-01T07:15:49;17.50;;;7.40;;
4202;SDS011;2115;51.038;7.006;2023-03-01T07:18:15;15.17;;;8.60;;
4202;SDS011;2115;51.038;7.006;2023-03-01T07:20:40;13.97;;;7.53;;
4202;SDS011;2115;51.038;7.006;2023-03-01T07:23:06;20.50;;;8.93;;
4202;SDS011;2115;51.038;7.006;2023-03-01T07:25:31;18.07;;;9.93;;
4202;SDS011;2115;51.038;7.006;2023-03-01T07:27:57;17.57;;;8.53;;
4202;SDS011;2115;51.038;7.006;2023-03-01T07:30:23;21.97;;;8.43;;
4202;SDS011;2115;51.038;7.006;2023-03-01T07:32:51;17.93;;;8.20;;
4202;SDS011;2115;51.038;7.006;2023-03-01T07:35:16;14.60;;;7.90;;
4202;SDS011;2115;51.038;7.006;2023-03-01T07:37:42;14.00;;;7.77;;
4202;SDS011;2115;51.038;7.006;2023-03-01T07:40:07;19.63;;;9.17;;
4202;SDS011;2115;51.038;7.006;2023-03-01T07:42:33;15.63;;;8.57;;
4202;SDS011;2115;51.038;7.006;2023-03-01T07:44:58;16.70;;;8.97;;
4202;SDS011;2115;51.038;7.006;2023-03-01T07:47:24;15.90;;;8.17;;
4202;SDS011;2115;51.038;7.006;2023-03-01T07:49:49;16.23;;;8.00;;
4202;SDS011;2115;51.038;7.006;2023-03-01T07:52:14;15.63;;;7.87;;
4202;SDS011;2115;51.038;7.006;2023-03-01T07:54:42;14.17;;;8.07;;
4202;SDS011;2115;51.038;7.006;2023-03-01T07:57:08;11.30;;;7.60;;
4202;SDS011;2115;51.038;7.006;2023-03-01T07:59:33;14.37;;;7.67;;
4202;SDS011;2115;51.038;7.006;2023-03-01T08:01:58;13.40;;;7.80;;
4202;SDS011;2115;51.038;7.006;2023-03-01T08:04:25;13.10;;;7.33;;
4202;SDS011;2115;51.038;7.006;2023-03-01T08:06:54;17.43;;;8.00;;
4202;SDS011;2115;51.038;7.006;2023-03-01T08:09:20;13.70;;;7.20;;
4202;SDS011;2115;51.038;7.006;2023-03-01T08:11:45;13.87;;;8.03;;
4202;SDS011;2115;51.038;7.006;2023-03-01T08:14:11;14.80;;;7.70;;
4202;SDS011;2115;51.038;7.006;2023-03-01T08:16:36;15.20;;;7.43;;
4202;SDS011;2115;51.038;7.006;2023-03-01T08:19:06;14.60;;;7.30;;
4202;SDS011;2115;51.038;7.006;2023-03-01T08:21:35;14.27;;;7.57;;
4202;SDS011;2115;51.038;7.006;2023-03-01T08:24:02;17.57;;;7.60;;
4202;SDS011;2115;51.038;7.006;2023-03-01T08:26:28;16.70;;;7.67;;
4202;SDS011;2115;51.038;7.006;2023-03-01T08:28:54;12.10;;;7.77;;
4202;SDS011;2115;51.038;7.006;2023-03-01T08:31:23;13.80;;;8.10;;
4202;SDS011;2115;51.038;7.006;2023-03-01T08:33:54;13.63;;;6.80;;
4202;SDS011;2115;51.038;7.006;2023-03-01T08:36:22;17.50;;;7.30;;
4202;SDS011;2115;51.038;7.006;2023-03-01T08:38:52;12.57;;;7.33;;
4202;SDS011;2115;51.038;7.006;2023-03-01T08:41:18;11.70;;;6.27;;
4202;SDS011;2115;51.038;7.006;2023-03-01T08:43:43;20.10;;;8.13;;
4202;SDS011;2115;51.038;7.006;2023-03-01T08:46:09;12.00;;;7.60;;
4202;SDS011;2115;51.038;7.006;2023-03-01T08:48:35;9.90;;;6.70;;
4202;SDS011;2115;51.038;7.006;2023-03-01T08:51:07;17.17;;;7.47;;
4202;SDS011;2115;51.038;7.006;2023-03-01T08:53:33;11.20;;;7.20;;
4202;SDS011;2115;51.038;7.006;2023-03-01T08:56:02;14.27;;;7.00;;
4202;SDS011;2115;51.038;7.006;2023-03-01T08:58:28;16.63;;;7.73;;
4202;SDS011;2115;51.038;7.006;2023-03-01T09:00:54;10.70;;;6.60;;
4202;SDS011;2115;51.038;7.006;2023-03-01T09:03:21;11.70;;;7.10;;
4202;SDS011;2115;51.038;7.006;2023-03-01T09:05:47;14.17;;;7.10;;
4202;SDS011;2115;51.038;7.006;2023-03-01T09:08:14;9.33;;;5.83;;
4202;SDS011;2115;51.038;7.006;2023-03-01T09:10:39;16.60;;;6.60;;
4202;SDS011;2115;51.038;7.006;2023-03-01T09:13:05;11.63;;;6.10;;
4202;SDS011;2115;51.038;7.006;2023-03-01T09:15:30;11.93;;;6.37;;
4202;SDS011;2115;51.038;7.006;2023-03-01T09:17:55;8.90;;;5.80;;
4202;SDS011;2115;51.038;7.006;2023-03-01T09:20:21;12.10;;;6.07;;
4202;SDS011;2115;51.038;7.006;2023-03-01T09:22:46;10.43;;;6.57;;
4202;SDS011;2115;51.038;7.006;2023-03-01T09:25:12;12.30;;;6.63;;
4202;SDS011;2115;51.038;7.006;2023-03-01T09:27:37;11.13;;;6.13;;
4202;SDS011;2115;51.038;7.006;2023-03-01T09:30:02;17.80;;;6.87;;
4202;SDS011;2115;51.038;7.006;2023-03-01T09:32:30;17.67;;;7.50;;
4202;SDS011;2115;51.038;7.006;2023-03-01T09:34:55;10.77;;;6.10;;
4202;SDS011;2115;51.038;7.006;2023-03-01T09:37:29;15.10;;;7.10;;
4202;SDS011;2115;51.038;7.006;2023-03-01T09:39:55;15.60;;;6.20;;
4202;SDS011;2115;51.038;7.006;2023-03-01T09:42:20;13.13;;;7.07;;
4202;SDS011;2115;51.038;7.006;2023-03-01T09:45:00;11.73;;;5.73;;
4202;SDS011;2115;51.038;7.006;2023-03-01T09:47:29;11.53;;;5.87;;
4202;SDS011;2115;51.038;7.006;2023-03-01T09:50:17;8.93;;;6.10;;
4202;SDS011;2115;51.038;7.006;2023-03-01T09:52:59;11.77;;;6.87;;
4202;SDS011;2115;51.038;7.006;2023-03-01T09:55:30;11.10;;;6.27;;
4202;SDS011;2115;51.038;7.006;2023-03-01T09:58:00;14.40;;;6.63;;
4202;SDS011;2115;51.038;7.006;2023-03-01T10:00:49;12.20;;;5.83;;
4202;SDS011;2115;51.038;7.006;2023-03-01T10:03:20;10.97;;;6.67;;
4202;SDS011;2115;51.038;7.006;2023-03-01T10:05:56;11.10;;;6.20;;
4202;SDS011;2115;51.038;7.006;2023-03-01T10:08:30;10.67;;;7.00;;
4202;SDS011;2115;51.038;7.006;2023-03-01T10:16:40;10.20;;;6.77;;
4202;SDS011;2115;51.038;7.006;2023-03-01T10:19:14;11.07;;;6.47;;
4202;SDS011;2115;51.038;7.006;2023-03-01T10:21:57;13.13;;;6.87;;
4202;SDS011;2115;51.038;7.006;2023-03-01T10:24:28;16.83;;;6.63;;
4202;SDS011;2115;51.038;7.006;2023-03-01T10:26:57;11.30;;;7.30;;
4202;SDS011;2115;51.038;7.006;2023-03-01T10:29:44;12.70;;;6.80;;
4202;SDS011;2115;51.038;7.006;2023-03-01T10:32:14;11.63;;;6.60;;
4202;SDS011;2115;51.038;7.006;2023-03-01T10:34:39;10.90;;;7.00;;
4202;SDS011;2115;51.038;7.006;2023-03-01T10:37:09;13.77;;;6.80;;
4202;SDS011;2115;51.038;7.006;2023-03-01T10:39:35;12.00;;;6.50;;
4202;SDS011;2115;51.038;7.006;2023-03-01T10:42:04;10.63;;;6.03;;
4202;SDS011;2115;51.038;7.006;2023-03-01T10:44:49;11.33;;;6.27;;
4202;SDS011;2115;51.038;7.006;2023-03-01T10:47:16;12.70;;;7.43;;
4202;SDS011;2115;51.038;7.006;2023-03-01T10:49:56;12.70;;;6.90;;
4202;SDS011;2115;51.038;7.006;2023-03-01T10:52:36;12.10;;;6.20;;
4202;SDS011;2115;51.038;7.006;2023-03-01T10:55:04;14.07;;;8.00;;
4202;SDS011;2115;51.038;7.006;2023-03-01T10:57:46;11.20;;;7.33;;
4202;SDS011;2115;51.038;7.006;2023-03-01T11:03:01;14.50;;;7.33;;
4202;SDS011;2115;51.038;7.006;2023-03-01T11:05:32;14.10;;;7.40;;
4202;SDS011;2115;51.038;7.006;2023-03-01T11:07:59;35.73;;;8.60;;
4202;SDS011;2115;51.038;7.006;2023-03-01T11:10:26;21.70;;;8.03;;
4202;SDS011;2115;51.038;7.006;2023-03-01T11:12:53;14.90;;;11.20;;
4202;SDS011;2115;51.038;7.006;2023-03-01T11:15:22;183.33;;;104.53;;
4202;SDS011;2115;51.038;7.006;2023-03-01T11:17:50;257.77;;;115.60;;
4202;SDS011;2115;51.038;7.006;2023-03-01T11:22:53;435.73;;;165.93;;
4202;SDS011;2115;51.038;7.006;2023-03-01T11:25:21;562.23;;;203.93;;
4202;SDS011;2115;51.038;7.006;2023-03-01T11:27:49;591.40;;;208.57;;
4202;SDS011;2115;51.038;7.006;2023-03-01T11:30:18;617.13;;;234.17;;
4202;SDS011;2115;51.038;7.006;2023-03-01T11:32:47;636.57;;;236.73;;
4202;SDS011;2115;51.038;7.006;2023-03-01T11:35:19;592.00;;;220.77;;
4202;SDS011;2115;51.038;7.006;2023-03-01T11:38:47;621.67;;;244.97;;
4202;SDS011;2115;51.038;7.006;2023-03-01T11:43:26;697.70;;;270.47;;
4202;SDS011;2115;51.038;7.006;2023-03-01T11:49:20;703.70;;;306.00;;
4202;SDS011;2115;51.038;7.006;2023-03-01T11:52:01;778.40;;;383.97;;
4202;SDS011;2115;51.038;7.006;2023-03-01T11:54:39;756.10;;;404.67;;
4202;SDS011;2115;51.038;7.006;2023-03-01T11:59:57;732.03;;;391.13;;
4202;SDS011;2115;51.038;7.006;2023-03-01T12:02:51;773.87;;;471.40;;
4202;SDS011;2115;51.038;7.006;2023-03-01T12:18:52;760.90;;;467.50;;
4202;SDS011;2115;51.038;7.006;2023-03-01T12:29:34;788.77;;;576.40;;
4202;SDS011;2115;51.038;7.006;2023-03-01T12:43:43;768.17;;;503.47;;
4202;SDS011;2115;51.038;7.006;2023-03-01T12:46:18;765.40;;;485.37;;
4202;SDS011;2115;51.038;7.006;2023-03-01T12:51:42;772.53;;;519.30;;
4202;SDS011;2115;51.038;7.006;2023-03-01T12:54:14;790.03;;;566.20;;
4202;SDS011;2115;51.038;7.006;2023-03-01T12:56:41;782.57;;;575.63;;
4202;SDS011;2115;51.038;7.006;2023-03-01T12:59:24;792.33;;;612.80;;
4202;SDS011;2115;51.038;7.006;2023-03-01T13:04:47;772.03;;;519.13;;
4202;SDS011;2115;51.038;7.006;2023-03-01T13:07:30;770.73;;;501.30;;
4202;SDS011;2115;51.038;7.006;2023-03-01T13:17:51;764.03;;;515.70;;
4202;SDS011;2115;51.038;7.006;2023-03-01T13:20:19;783.73;;;569.97;;
4202;SDS011;2115;51.038;7.006;2023-03-01T13:25:30;781.40;;;581.03;;
4202;SDS011;2115;51.038;7.006;2023-03-01T13:28:36;787.30;;;587.03;;
4202;SDS011;2115;51.038;7.006;2023-03-01T13:30:59;812.03;;;620.17;;
4202;SDS011;2115;51.038;7.006;2023-03-01T13:35:50;803.50;;;669.13;;
4202;SDS011;2115;51.038;7.006;2023-03-01T13:41:06;797.30;;;673.33;;
4202;SDS011;2115;51.038;7.006;2023-03-01T13:43:32;802.43;;;682.00;;
4202;SDS011;2115;51.038;7.006;2023-03-01T13:46:00;805.33;;;683.03;;
4202;SDS011;2115;51.038;7.006;2023-03-01T13:48:36;814.20;;;686.30;;
4202;SDS011;2115;51.038;7.006;2023-03-01T13:51:04;805.20;;;687.40;;
4202;SDS011;2115;51.038;7.006;2023-03-01T13:53:34;830.93;;;740.27;;
4202;SDS011;2115;51.038;7.006;2023-03-01T13:56:17;830.17;;;738.83;;
4202;SDS011;2115;51.038;7.006;2023-03-01T14:03:54;821.57;;;730.40;;
4202;SDS011;2115;51.038;7.006;2023-03-01T14:06:21;830.80;;;739.70;;
4202;SDS011;2115;51.038;7.006;2023-03-01T14:08:52;872.50;;;780.60;;
4202;SDS011;2115;51.038;7.006;2023-03-01T14:11:35;857.17;;;764.40;;
4202;SDS011;2115;51.038;7.006;2023-03-01T14:20:22;799.17;;;626.07;;
4202;SDS011;2115;51.038;7.006;2023-03-01T14:22:51;789.30;;;612.77;;
4202;SDS011;2115;51.038;7.006;2023-03-01T14:25:20;799.37;;;604.20;;
4202;SDS011;2115;51.038;7.006;2023-03-01T14:27:57;784.83;;;601.90;;
4202;SDS011;2115;51.038;7.006;2023-03-01T14:30:50;816.43;;;663.27;;
4202;SDS011;2115;51.038;7.006;2023-03-01T14:33:19;819.80;;;633.53;;
4202;SDS011;2115;51.038;7.006;2023-03-01T14:38:38;789.10;;;588.17;;
4202;SDS011;2115;51.038;7.006;2023-03-01T14:43:38;805.03;;;601.77;;
4202;SDS011;2115;51.038;7.006;2023-03-01T14:46:06;809.47;;;594.00;;
4202;SDS011;2115;51.038;7.006;2023-03-01T14:48:31;782.30;;;561.43;;
4202;SDS011;2115;51.038;7.006;2023-03-01T14:50:57;799.83;;;599.90;;
4202;SDS011;2115;51.038;7.006;2023-03-01T14:53:24;789.20;;;591.60;;
4202;SDS011;2115;51.038;7.006;2023-03-01T14:55:52;801.70;;;579.77;;
4202;SDS011;2115;51.038;7.006;2023-03-01T14:58:20;770.67;;;524.90;;
4202;SDS011;2115;51.038;7.006;2023-03-01T15:00:51;804.47;;;554.73;;
4202;SDS011;2115;51.038;7.006;2023-03-01T15:05:58;795.00;;;503.37;;
4202;SDS011;2115;51.038;7.006;2023-03-01T15:08:25;762.47;;;452.33;;
4202;SDS011;2115;51.038;7.006;2023-03-01T15:10:58;731.80;;;345.77;;
4202;SDS011;2115;51.038;7.006;2023-03-01T15:13:47;687.13;;;269.47;;
4202;SDS011;2115;51.038;7.006;2023-03-01T15:16:13;691.67;;;236.43;;
4202;SDS011;2115;51.038;7.006;2023-03-01T15:18:43;651.50;;;199.63;;
4202;SDS011;2115;51.038;7.006;2023-03-01T15:21:35;646.40;;;181.00;;
4202;SDS011;2115;51.038;7.006;2023-03-01T15:26:42;614.57;;;155.13;;
4202;SDS011;2115;51.038;7.006;2023-03-01T15:29:17;623.63;;;158.47;;
4202;SDS011;2115;51.038;7.006;2023-03-01T15:31:52;615.67;;;151.47;;
4202;SDS011;2115;51.038;7.006;2023-03-01T15:36:49;612.73;;;147.70;;
4202;SDS011;2115;51.038;7.006;2023-03-01T15:41:56;599.73;;;141.70;;
4202;SDS011;2115;51.038;7.006;2023-03-01T15:44:26;605.13;;;144.73;;
4202;SDS011;2115;51.038;7.006;2023-03-01T15:46:53;599.07;;;141.80;;
4202;SDS011;2115;51.038;7.006;2023-03-01T15:52:11;591.27;;;135.27;;
4202;SDS011;2115;51.038;7.006;2023-03-01T15:54:39;586.47;;;135.87;;
4202;SDS011;2115;51.038;7.006;2023-03-01T15:57:08;587.77;;;135.90;;
4202;SDS011;2115;51.038;7.006;2023-03-01T15:59:38;587.50;;;136.47;;
4202;SDS011;2115;51.038;7.006;2023-03-01T16:02:08;591.50;;;137.07;;
4202;SDS011;2115;51.038;7.006;2023-03-01T16:04:34;591.40;;;133.93;;
4202;SDS011;2115;51.038;7.006;2023-03-01T16:07:00;591.00;;;133.60;;
4202;SDS011;2115;51.038;7.006;2023-03-01T16:09:26;596.30;;;136.97;;
4202;SDS011;2115;51.038;7.006;2023-03-01T16:11:52;593.30;;;134.30;;
4202;SDS011;2115;51.038;7.006;2023-03-01T16:14:18;587.37;;;132.10;;
4202;SDS011;2115;51.038;7.006;2023-03-01T16:16:44;580.27;;;130.40;;
4202;SDS011;2115;51.038;7.006;2023-03-01T16:19:10;583.17;;;132.87;;
4202;SDS011;2115;51.038;7.006;2023-03-01T16:21:36;586.03;;;130.47;;
4202;SDS011;2115;51.038;7.006;2023-03-01T16:24:01;578.97;;;129.13;;
4202;SDS011;2115;51.038;7.006;2023-03-01T16:26:27;582.50;;;129.17;;
4202;SDS011;2115;51.038;7.006;2023-03-01T16:28:56;580.90;;;130.47;;
4202;SDS011;2115;51.038;7.006;2023-03-01T16:31:22;580.57;;;138.77;;
4202;SDS011;2115;51.038;7.006;2023-03-01T16:33:48;576.57;;;130.17;;
4202;SDS011;2115;51.038;7.006;2023-03-01T16:36:15;575.87;;;130.43;;
4202;SDS011;2115;51.038;7.006;2023-03-01T16:38:42;574.07;;;128.07;;
4202;SDS011;2115;51.038;7.006;2023-03-01T16:41:14;580.87;;;131.10;;
4202;SDS011;2115;51.038;7.006;2023-03-01T16:43:40;588.80;;;134.37;;
4202;SDS011;2115;51.038;7.006;2023-03-01T16:46:12;580.53;;;131.77;;
4202;SDS011;2115;51.038;7.006;2023-03-01T16:48:39;575.10;;;129.27;;
4202;SDS011;2115;51.038;7.006;2023-03-01T16:51:04;579.43;;;129.50;;
4202;SDS011;2115;51.038;7.006;2023-03-01T16:53:32;576.10;;;131.93;;
4202;SDS011;2115;51.038;7.006;2023-03-01T16:55:58;567.43;;;127.40;;